sensor_id;sensor_type;location;lat;lon;timestamp;P1;durP1;ratioP1;P2;durP2;ratioP2
21012;SDS011;10664;53.582;9.712;2023-03-01T00:00:37;15.90;;;11.57;;
21012;SDS011;10664;53.582;9.712;2023-03-01T00:03:03;13.53;;;10.40;;
21012;SDS011;10664;53.582;9.712;2023-03-01T00:05:29;12.90;;;9.03;;
21012;SDS011;10664;53.582;9.712;2023-03-01T00:07:55;11.90;;;9.60;;
21012;SDS011;10664;53.582;9.712;2023-03-01T00:10:21;11.87;;;9.17;;
21012;SDS011;10664;53.582;9.712;2023-03-01T00:12:46;11.30;;;8.77;;
21012;SDS011;10664;53.582;9.712;2023-03-01T00:15:12;11.60;;;8.87;;
21012;SDS011;10664;53.582;9.712;2023-03-01T00:17:38;11.77;;;8.40;;
21012;SDS011;10664;53.582;9.712;2023-03-01T00:20:05;11.20;;;9.37;;
21012;SDS011;10664;53.582;9.712;2023-03-01T00:22:35;10.67;;;8.57;;
21012;SDS011;10664;53.582;9.712;2023-03-01T00:25:01;12.80;;;9.30;;
21012;SDS011;10664;53.582;9.712;2023-03-01T00:27:27;12.67;;;8.67;;
21012;SDS011;10664;53.582;9.712;2023-03-01T00:29:53;11.30;;;8.90;;
21012;SDS011;10664;53.582;9.712;2023-03-01T00:32:19;11.97;;;8.87;;
21012;SDS011;10664;53.582;9.712;2023-03-01T00:34:45;10.50;;;8.20;;
21012;SDS011;10664;53.582;9.712;2023-03-01T00:37:18;10.87;;;8.60;;
21012;SDS011;10664;53.582;9.712;2023-03-01T00:39:45;11.77;;;8.23;;
21012;SDS011;10664;53.582;9.712;2023-03-01T00:42:11;11.67;;;8.30;;
21012;SDS011;10664;53.582;9.712;2023-03-01T00:44:37;11.73;;;9.17;;
21012;SDS011;10664;53.582;9.712;2023-03-01T00:47:03;9.93;;;8.13;;
21012;SDS011;10664;53.582;9.712;2023-03-01T00:49:29;11.07;;;8.63;;
21012;SDS011;10664;53.582;9.712;2023-03-01T00:51:55;10.90;;;8.10;;
21012;SDS011;10664;53.582;9.712;2023-03-01T00:54:21;11.27;;;7.93;;
21012;SDS011;10664;53.582;9.712;2023-03-01T00:56:47;10.73;;;7.80;;
21012;SDS011;10664;53.582;9.712;2023-03-01T00:59:13;9.53;;;7.50;;
21012;SDS011;10664;53.582;9.712;2023-03-01T01:01:39;11.00;;;8.83;;
21012;SDS011;10664;53.582;9.712;2023-03-01T01:04:06;11.97;;;8.50;;
21012;SDS011;10664;53.582;9.712;2023-03-01T01:06:33;10.00;;;8.07;;
21012;SDS011;10664;53.582;9.712;2023-03-01T01:09:00;9.27;;;7.77;;
21012;SDS011;10664;53.582;9.712;2023-03-01T01:11:28;10.77;;;8.00;;
21012;SDS011;10664;53.582;9.712;2023-03-01T01:13:54;10.20;;;7.97;;
21012;SDS011;10664;53.582;9.712;2023-03-01T01:16:21;11.87;;;8.43;;
21012;SDS011;10664;53.582;9.712;2023-03-01T01:18:47;9.43;;;8.07;;
21012;SDS011;10664;53.582;9.712;2023-03-01T01:21:14;8.37;;;7.30;;
21012;SDS011;10664;53.582;9.712;2023-03-01T01:23:41;8.47;;;7.53;;
21012;SDS011;10664;53.582;9.712;2023-03-01T01:26:08;10.17;;;7.40;;
21012;SDS011;10664;53.582;9.712;2023-03-01T01:28:34;9.60;;;7.27;;
21012;SDS011;10664;53.582;9.712;2023-03-01T01:31:00;8.90;;;7.63;;
21012;SDS011;10664;53.582;9.712;2023-03-01T01:33:26;9.03;;;7.30;;
21012;SDS011;10664;53.582;9.712;2023-03-01T01:35:52;10.37;;;7.87;;
21012;SDS011;10664;53.582;9.712;2023-03-01T01:38:18;8.30;;;6.70;;
21012;SDS011;10664;53.582;9.712;2023-03-01T01:40:48;8.10;;;6.53;;
21012;SDS011;10664;53.582;9.712;2023-03-01T01:43:19;8.03;;;6.57;;
21012;SDS011;10664;53.582;9.712;2023-03-01T01:45:45;6.97;;;6.27;;
21012;SDS011;10664;53.582;9.712;2023-03-01T01:48:12;7.87;;;6.67;;
21012;SDS011;10664;53.582;9.712;2023-03-01T01:50:40;7.13;;;5.60;;
21012;SDS011;10664;53.582;9.712;2023-03-01T01:53:10;7.67;;;6.47;;
21012;SDS011;10664;53.582;9.712;2023-03-01T01:55:39;8.80;;;6.03;;
21012;SDS011;10664;53.582;9.712;2023-03-01T01:58:06;7.20;;;6.00;;
21012;SDS011;10664;53.582;9.712;2023-03-01T02:00:34;7.87;;;6.43;;
21012;SDS011;10664;53.582;9.712;2023-03-01T02:03:04;8.53;;;6.30;;
21012;SDS011;10664;53.582;9.712;2023-03-01T02:05:40;7.27;;;5.90;;
21012;SDS011;10664;53.582;9.712;2023-03-01T02:08:09;6.80;;;5.70;;
21012;SDS011;10664;53.582;9.712;2023-03-01T02:10:36;6.03;;;5.33;;
21012;SDS011;10664;53.582;9.712;2023-03-01T02:13:03;6.87;;;5.50;;
21012;SDS011;10664;53.582;9.712;2023-03-01T02:15:33;7.60;;;6.30;;
21012;SDS011;10664;53.582;9.712;2023-03-01T02:17:59;7.67;;;5.80;;
21012;SDS011;10664;53.582;9.712;2023-03-01T02:22:51;6.33;;;5.23;;
21012;SDS011;10664;53.582;9.712;2023-03-01T02:30:28;6.77;;;5.47;;
21012;SDS011;10664;53.582;9.712;2023-03-01T02:32:54;6.97;;;5.77;;
21012;SDS011;10664;53.582;9.712;2023-03-01T02:35:27;6.37;;;5.70;;
21012;SDS011;10664;53.582;9.712;2023-03-01T02:37:54;5.37;;;4.70;;
21012;SDS011;10664;53.582;9.712;2023-03-01T02:40:22;7.17;;;5.80;;
21012;SDS011;10664;53.582;9.712;2023-03-01T02:42:50;5.73;;;5.03;;
21012;SDS011;10664;53.582;9.712;2023-03-01T02:45:16;5.50;;;5.00;;
21012;SDS011;10664;53.582;9.712;2023-03-01T02:47:42;6.07;;;5.03;;
21012;SDS011;10664;53.582;9.712;2023-03-01T02:55:26;6.20;;;5.53;;
21012;SDS011;10664;53.582;9.712;2023-03-01T02:57:53;7.07;;;5.53;;
21012;SDS011;10664;53.582;9.712;2023-03-01T03:00:30;8.50;;;6.27;;
21012;SDS011;10664;53.582;9.712;2023-03-01T03:02:58;5.90;;;5.07;;
21012;SDS011;10664;53.582;9.712;2023-03-01T03:05:25;6.27;;;5.40;;
21012;SDS011;10664;53.582;9.712;2023-03-01T03:07:52;6.00;;;5.40;;
21012;SDS011;10664;53.582;9.712;2023-03-01T03:10:19;6.23;;;5.53;;
21012;SDS011;10664;53.582;9.712;2023-03-01T03:12:53;7.10;;;6.00;;
21012;SDS011;10664;53.582;9.712;2023-03-01T03:15:20;6.97;;;5.57;;
21012;SDS011;10664;53.582;9.712;2023-03-01T03:17:46;6.23;;;5.63;;
21012;SDS011;10664;53.582;9.712;2023-03-01T03:20:13;6.37;;;5.50;;
21012;SDS011;10664;53.582;9.712;2023-03-01T03:22:43;6.73;;;5.17;;
21012;SDS011;10664;53.582;9.712;2023-03-01T03:25:10;5.90;;;4.93;;
21012;SDS011;10664;53.582;9.712;2023-03-01T03:27:37;6.93;;;5.47;;
21012;SDS011;10664;53.582;9.712;2023-03-01T03:30:04;6.23;;;5.37;;
21012;SDS011;10664;53.582;9.712;2023-03-01T03:32:33;5.87;;;5.27;;
21012;SDS011;10664;53.582;9.712;2023-03-01T03:35:00;5.90;;;4.97;;
21012;SDS011;10664;53.582;9.712;2023-03-01T03:37:26;6.03;;;5.43;;
21012;SDS011;10664;53.582;9.712;2023-03-01T03:40:11;7.63;;;5.40;;
21012;SDS011;10664;53.582;9.712;2023-03-01T03:42:40;6.20;;;5.43;;
21012;SDS011;10664;53.582;9.712;2023-03-01T03:45:06;6.07;;;5.10;;
21012;SDS011;10664;53.582;9.712;2023-03-01T03:47:32;6.00;;;5.03;;
21012;SDS011;10664;53.582;9.712;2023-03-01T03:49:58;6.10;;;5.30;;
21012;SDS011;10664;53.582;9.712;2023-03-01T03:52:24;6.57;;;5.10;;
21012;SDS011;10664;53.582;9.712;2023-03-01T03:54:50;7.27;;;5.40;;
21012;SDS011;10664;53.582;9.712;2023-03-01T03:57:16;7.27;;;5.13;;
21012;SDS011;10664;53.582;9.712;2023-03-01T03:59:42;5.93;;;5.30;;
21012;SDS011;10664;53.582;9.712;2023-03-01T04:02:08;7.47;;;5.30;;
21012;SDS011;10664;53.582;9.712;2023-03-01T04:04:34;5.73;;;4.67;;
21012;SDS011;10664;53.582;9.712;2023-03-01T04:07:00;6.33;;;5.03;;
21012;SDS011;10664;53.582;9.712;2023-03-01T04:09:26;5.50;;;4.40;;
21012;SDS011;10664;53.582;9.712;2023-03-01T04:11:52;5.50;;;4.73;;
21012;SDS011;10664;53.582;9.712;2023-03-01T04:14:18;5.77;;;4.70;;
21012;SDS011;10664;53.582;9.712;2023-03-01T04:16:44;5.50;;;4.97;;
21012;SDS011;10664;53.582;9.712;2023-03-01T04:19:10;5.00;;;4.47;;
21012;SDS011;10664;53.582;9.712;2023-03-01T04:21:36;4.90;;;4.23;;
21012;SDS011;10664;53.582;9.712;2023-03-01T04:24:02;4.97;;;4.43;;
21012;SDS011;10664;53.582;9.712;2023-03-01T04:26:28;4.30;;;3.90;;
21012;SDS011;10664;53.582;9.712;2023-03-01T04:28:54;5.00;;;4.50;;
21012;SDS011;10664;53.582;9.712;2023-03-01T04:31:20;5.33;;;4.40;;
21012;SDS011;10664;53.582;9.712;2023-03-01T04:33:47;4.77;;;4.37;;
21012;SDS011;10664;53.582;9.712;2023-03-01T04:36:16;5.30;;;4.70;;
21012;SDS011;10664;53.582;9.712;2023-03-01T04:38:42;6.50;;;4.60;;
21012;SDS011;10664;53.582;9.712;2023-03-01T04:41:12;5.23;;;4.70;;
21012;SDS011;10664;53.582;9.712;2023-03-01T04:43:38;6.17;;;4.40;;
21012;SDS011;10664;53.582;9.712;2023-03-01T04:46:04;5.20;;;4.70;;
21012;SDS011;10664;53.582;9.712;2023-03-01T04:48:32;6.07;;;4.60;;
21012;SDS011;10664;53.582;9.712;2023-03-01T04:50:58;5.03;;;4.30;;
21012;SDS011;10664;53.582;9.712;2023-03-01T04:53:25;5.27;;;4.77;;
21012;SDS011;10664;53.582;9.712;2023-03-01T04:55:51;4.67;;;4.27;;
21012;SDS011;10664;53.582;9.712;2023-03-01T04:58:17;5.30;;;4.40;;
21012;SDS011;10664;53.582;9.712;2023-03-01T05:00:43;4.83;;;3.90;;
21012;SDS011;10664;53.582;9.712;2023-03-01T05:03:09;5.17;;;4.33;;
21012;SDS011;10664;53.582;9.712;2023-03-01T05:05:36;4.40;;;4.00;;
21012;SDS011;10664;53.582;9.712;2023-03-01T05:08:03;4.37;;;3.93;;
21012;SDS011;10664;53.582;9.712;2023-03-01T05:10:31;4.60;;;4.10;;
21012;SDS011;10664;53.582;9.712;2023-03-01T05:12:57;4.67;;;4.27;;
21012;SDS011;10664;53.582;9.712;2023-03-01T05:15:24;4.77;;;4.23;;
21012;SDS011;10664;53.582;9.712;2023-03-01T05:17:50;4.17;;;3.77;;
21012;SDS011;10664;53.582;9.712;2023-03-01T05:20:16;5.47;;;4.27;;
21012;SDS011;10664;53.582;9.712;2023-03-01T05:22:43;4.53;;;3.90;;
21012;SDS011;10664;53.582;9.712;2023-03-01T05:25:09;4.13;;;3.73;;
21012;SDS011;10664;53.582;9.712;2023-03-01T05:27:35;3.97;;;3.50;;
21012;SDS011;10664;53.582;9.712;2023-03-01T05:30:02;4.17;;;3.77;;
21012;SDS011;10664;53.582;9.712;2023-03-01T05:32:38;4.00;;;3.50;;
21012;SDS011;10664;53.582;9.712;2023-03-01T05:35:04;4.57;;;3.97;;
21012;SDS011;10664;53.582;9.712;2023-03-01T05:37:30;4.97;;;4.57;;
21012;SDS011;10664;53.582;9.712;2023-03-01T05:39:56;4.60;;;4.20;;
21012;SDS011;10664;53.582;9.712;2023-03-01T05:42:22;6.00;;;4.53;;
21012;SDS011;10664;53.582;9.712;2023-03-01T05:44:48;5.17;;;4.67;;
21012;SDS011;10664;53.582;9.712;2023-03-01T05:47:14;5.77;;;4.60;;
21012;SDS011;10664;53.582;9.712;2023-03-01T05:49:40;5.03;;;4.40;;
21012;SDS011;10664;53.582;9.712;2023-03-01T05:52:06;5.93;;;4.73;;
21012;SDS011;10664;53.582;9.712;2023-03-01T05:54:32;5.93;;;4.57;;
21012;SDS011;10664;53.582;9.712;2023-03-01T05:56:58;4.93;;;4.40;;
21012;SDS011;10664;53.582;9.712;2023-03-01T05:59:24;5.50;;;4.90;;
21012;SDS011;10664;53.582;9.712;2023-03-01T06:01:50;5.30;;;4.80;;
21012;SDS011;10664;53.582;9.712;2023-03-01T06:04:16;5.20;;;4.60;;
21012;SDS011;10664;53.582;9.712;2023-03-01T06:06:42;6.60;;;4.93;;
21012;SDS011;10664;53.582;9.712;2023-03-01T06:09:08;5.93;;;4.93;;
21012;SDS011;10664;53.582;9.712;2023-03-01T06:11:35;5.77;;;4.60;;
21012;SDS011;10664;53.582;9.712;2023-03-01T06:14:01;5.63;;;4.70;;
21012;SDS011;10664;53.582;9.712;2023-03-01T06:16:27;5.77;;;4.87;;
21012;SDS011;10664;53.582;9.712;2023-03-01T06:18:53;5.23;;;4.33;;
21012;SDS011;10664;53.582;9.712;2023-03-01T06:21:19;4.90;;;4.40;;
21012;SDS011;10664;53.582;9.712;2023-03-01T06:23:45;5.03;;;4.20;;
21012;SDS011;10664;53.582;9.712;2023-03-01T06:26:11;6.07;;;4.83;;
21012;SDS011;10664;53.582;9.712;2023-03-01T06:28:37;5.83;;;4.60;;
21012;SDS011;10664;53.582;9.712;2023-03-01T06:31:03;6.30;;;5.03;;
21012;SDS011;10664;53.582;9.712;2023-03-01T06:33:29;4.67;;;4.17;;
21012;SDS011;10664;53.582;9.712;2023-03-01T06:35:55;4.70;;;4.30;;
21012;SDS011;10664;53.582;9.712;2023-03-01T06:38:21;4.40;;;4.00;;
21012;SDS011;10664;53.582;9.712;2023-03-01T06:40:54;4.83;;;3.93;;
21012;SDS011;10664;53.582;9.712;2023-03-01T06:43:21;6.67;;;4.40;;
21012;SDS011;10664;53.582;9.712;2023-03-01T06:45:48;4.13;;;3.73;;
21012;SDS011;10664;53.582;9.712;2023-03-01T06:48:14;4.20;;;3.80;;
21012;SDS011;10664;53.582;9.712;2023-03-01T06:50:40;4.40;;;3.97;;
21012;SDS011;10664;53.582;9.712;2023-03-01T06:53:06;4.43;;;3.90;;
21012;SDS011;10664;53.582;9.712;2023-03-01T06:55:32;4.73;;;4.10;;
21012;SDS011;10664;53.582;9.712;2023-03-01T06:57:58;4.77;;;3.90;;
21012;SDS011;10664;53.582;9.712;2023-03-01T07:00:24;4.17;;;3.60;;
21012;SDS011;10664;53.582;9.712;2023-03-01T07:02:51;4.30;;;3.77;;
21012;SDS011;10664;53.582;9.712;2023-03-01T07:05:17;5.20;;;4.37;;
21012;SDS011;10664;53.582;9.712;2023-03-01T07:07:43;4.33;;;3.93;;
21012;SDS011;10664;53.582;9.712;2023-03-01T07:10:09;4.20;;;3.80;;
21012;SDS011;10664;53.582;9.712;2023-03-01T07:12:35;5.67;;;4.50;;
21012;SDS011;10664;53.582;9.712;2023-03-01T07:15:01;5.40;;;4.57;;
21012;SDS011;10664;53.582;9.712;2023-03-01T07:17:27;5.07;;;4.57;;
21012;SDS011;10664;53.582;9.712;2023-03-01T07:19:53;5.07;;;4.20;;
21012;SDS011;10664;53.582;9.712;2023-03-01T07:22:19;4.77;;;4.33;;
21012;SDS011;10664;53.582;9.712;2023-03-01T07:24:45;5.10;;;3.93;;
21012;SDS011;10664;53.582;9.712;2023-03-01T07:27:11;5.37;;;4.37;;
21012;SDS011;10664;53.582;9.712;2023-03-01T07:29:37;5.80;;;4.50;;
21012;SDS011;10664;53.582;9.712;2023-03-01T07:32:04;4.50;;;4.10;;
21012;SDS011;10664;53.582;9.712;2023-03-01T07:34:30;4.97;;;4.27;;
21012;SDS011;10664;53.582;9.712;2023-03-01T07:36:56;5.10;;;4.00;;
21012;SDS011;10664;53.582;9.712;2023-03-01T07:39:22;5.93;;;5.33;;
21012;SDS011;10664;53.582;9.712;2023-03-01T07:41:48;6.17;;;5.13;;
21012;SDS011;10664;53.582;9.712;2023-03-01T07:44:14;5.50;;;4.93;;
21012;SDS011;10664;53.582;9.712;2023-03-01T07:46:42;5.57;;;5.07;;
21012;SDS011;10664;53.582;9.712;2023-03-01T07:49:08;6.13;;;4.97;;
21012;SDS011;10664;53.582;9.712;2023-03-01T07:51:34;5.80;;;5.20;;
21012;SDS011;10664;53.582;9.712;2023-03-01T07:54:00;7.03;;;5.73;;
21012;SDS011;10664;53.582;9.712;2023-03-01T07:56:26;5.77;;;5.17;;
21012;SDS011;10664;53.582;9.712;2023-03-01T07:58:52;6.07;;;5.47;;
21012;SDS011;10664;53.582;9.712;2023-03-01T08:01:19;6.20;;;5.60;;
21012;SDS011;10664;53.582;9.712;2023-03-01T08:03:45;6.90;;;5.60;;
21012;SDS011;10664;53.582;9.712;2023-03-01T08:06:12;6.77;;;6.07;;
21012;SDS011;10664;53.582;9.712;2023-03-01T08:08:38;6.00;;;5.33;;
21012;SDS011;10664;53.582;9.712;2023-03-01T08:11:05;6.40;;;5.80;;
21012;SDS011;10664;53.582;9.712;2023-03-01T08:13:31;8.17;;;6.27;;
21012;SDS011;10664;53.582;9.712;2023-03-01T08:16:07;7.93;;;7.13;;
21012;SDS011;10664;53.582;9.712;2023-03-01T08:18:33;9.67;;;7.60;;
21012;SDS011;10664;53.582;9.712;2023-03-01T08:21:06;10.10;;;9.03;;
21012;SDS011;10664;53.582;9.712;2023-03-01T08:23:32;9.90;;;8.87;;
21012;SDS011;10664;53.582;9.712;2023-03-01T08:26:06;10.57;;;9.07;;
21012;SDS011;10664;53.582;9.712;2023-03-01T08:28:32;10.70;;;9.30;;
21012;SDS011;10664;53.582;9.712;2023-03-01T08:30:59;13.17;;;9.63;;
21012;SDS011;10664;53.582;9.712;2023-03-01T08:33:25;11.03;;;9.73;;
21012;SDS011;10664;53.582;9.712;2023-03-01T08:35:51;10.63;;;8.90;;
21012;SDS011;10664;53.582;9.712;2023-03-01T08:38:17;10.20;;;9.20;;
21012;SDS011;10664;53.582;9.712;2023-03-01T08:40:43;10.73;;;9.30;;
21012;SDS011;10664;53.582;9.712;2023-03-01T08:43:09;9.83;;;8.80;;
21012;SDS011;10664;53.582;9.712;2023-03-01T08:45:35;9.33;;;7.80;;
21012;SDS011;10664;53.582;9.712;2023-03-01T08:48:01;9.93;;;8.43;;
21012;SDS011;10664;53.582;9.712;2023-03-01T08:50:27;10.43;;;8.77;;
21012;SDS011;10664;53.582;9.712;2023-03-01T08:52:53;9.83;;;8.13;;
21012;SDS011;10664;53.582;9.712;2023-03-01T08:55:19;9.63;;;7.47;;
21012;SDS011;10664;53.582;9.712;2023-03-01T08:57:44;9.67;;;8.13;;
21012;SDS011;10664;53.582;9.712;2023-03-01T09:00:11;8.43;;;7.53;;
21012;SDS011;10664;53.582;9.712;2023-03-01T09:02:37;9.30;;;7.13;;
21012;SDS011;10664;53.582;9.712;2023-03-01T09:05:03;9.37;;;7.47;;
21012;SDS011;10664;53.582;9.712;2023-03-01T09:07:29;9.87;;;7.70;;
21012;SDS011;10664;53.582;9.712;2023-03-01T09:09:55;9.53;;;8.13;;
21012;SDS011;10664;53.582;9.712;2023-03-01T09:12:21;8.80;;;7.17;;
21012;SDS011;10664;53.582;9.712;2023-03-01T09:14:47;9.37;;;7.73;;
21012;SDS011;10664;53.582;9.712;2023-03-01T09:17:13;8.80;;;7.70;;
21012;SDS011;10664;53.582;9.712;2023-03-01T09:19:39;8.37;;;6.90;;
21012;SDS011;10664;53.582;9.712;2023-03-01T09:22:05;8.70;;;7.27;;
21012;SDS011;10664;53.582;9.712;2023-03-01T09:24:31;8.73;;;6.70;;
21012;SDS011;10664;53.582;9.712;2023-03-01T09:26:57;7.93;;;7.13;;
21012;SDS011;10664;53.582;9.712;2023-03-01T09:29:23;9.80;;;7.87;;
21012;SDS011;10664;53.582;9.712;2023-03-01T09:31:50;10.37;;;7.53;;
21012;SDS011;10664;53.582;9.712;2023-03-01T09:34:19;8.70;;;7.07;;
21012;SDS011;10664;53.582;9.712;2023-03-01T09:36:48;7.90;;;6.73;;
21012;SDS011;10664;53.582;9.712;2023-03-01T09:39:14;8.27;;;6.90;;
21012;SDS011;10664;53.582;9.712;2023-03-01T09:41:44;8.63;;;6.83;;
21012;SDS011;10664;53.582;9.712;2023-03-01T09:44:21;7.80;;;6.87;;
21012;SDS011;10664;53.582;9.712;2023-03-01T09:46:50;7.73;;;6.60;;
21012;SDS011;10664;53.582;9.712;2023-03-01T09:49:17;7.40;;;6.13;;
21012;SDS011;10664;53.582;9.712;2023-03-01T09:51:54;7.07;;;5.97;;
21012;SDS011;10664;53.582;9.712;2023-03-01T09:54:21;6.83;;;5.83;;
21012;SDS011;10664;53.582;9.712;2023-03-01T09:56:59;8.57;;;6.77;;
21012;SDS011;10664;53.582;9.712;2023-03-01T10:02:23;8.43;;;6.87;;
21012;SDS011;10664;53.582;9.712;2023-03-01T10:04:50;8.87;;;6.10;;
21012;SDS011;10664;53.582;9.712;2023-03-01T10:09:43;8.23;;;6.90;;
21012;SDS011;10664;53.582;9.712;2023-03-01T10:12:14;7.40;;;6.47;;
21012;SDS011;10664;53.582;9.712;2023-03-01T10:14:48;8.97;;;6.93;;
21012;SDS011;10664;53.582;9.712;2023-03-01T10:21:03;9.30;;;7.43;;
21012;SDS011;10664;53.582;9.712;2023-03-01T10:22:57;8.70;;;6.27;;
21012;SDS011;10664;53.582;9.712;2023-03-01T10:27:51;9.13;;;6.37;;
21012;SDS011;10664;53.582;9.712;2023-03-01T10:30:22;9.40;;;6.93;;
21012;SDS011;10664;53.582;9.712;2023-03-01T10:32:55;9.13;;;6.67;;
21012;SDS011;10664;53.582;9.712;2023-03-01T10:35:24;9.03;;;6.23;;
21012;SDS011;10664;53.582;9.712;2023-03-01T10:38:10;9.83;;;6.90;;
21012;SDS011;10664;53.582;9.712;2023-03-01T10:40:49;9.13;;;7.07;;
21012;SDS011;10664;53.582;9.712;2023-03-01T10:43:16;8.47;;;6.43;;
21012;SDS011;10664;53.582;9.712;2023-03-01T10:45:42;8.47;;;6.70;;
21012;SDS011;10664;53.582;9.712;2023-03-01T10:50:34;8.83;;;6.43;;
21012;SDS011;10664;53.582;9.712;2023-03-01T10:53:03;9.23;;;7.20;;
21012;SDS011;10664;53.582;9.712;2023-03-01T11:00:33;9.70;;;6.60;;
21012;SDS011;10664;53.582;9.712;2023-03-01T11:03:11;10.13;;;6.50;;
21012;SDS011;10664;53.582;9.712;2023-03-01T11:05:49;9.00;;;6.60;;
21012;SDS011;10664;53.582;9.712;2023-03-01T11:08:28;8.77;;;6.53;;
21012;SDS011;10664;53.582;9.712;2023-03-01T11:11:03;8.63;;;6.30;;
21012;SDS011;10664;53.582;9.712;2023-03-01T11:13:30;8.20;;;6.00;;
21012;SDS011;10664;53.582;9.712;2023-03-01T11:16:03;7.97;;;6.13;;
21012;SDS011;10664;53.582;9.712;2023-03-01T11:18:31;9.70;;;6.60;;
21012;SDS011;10664;53.582;9.712;2023-03-01T11:20:58;9.50;;;6.87;;
21012;SDS011;10664;53.582;9.712;2023-03-01T11:23:25;10.43;;;7.20;;
21012;SDS011;10664;53.582;9.712;2023-03-01T11:26:00;9.03;;;6.73;;
21012;SDS011;10664;53.582;9.712;2023-03-01T11:28:27;9.43;;;6.77;;
21012;SDS011;10664;53.582;9.712;2023-03-01T11:31:07;8.60;;;6.20;;
21012;SDS011;10664;53.582;9.712;2023-03-01T11:38:32;9.93;;;7.37;;
21012;SDS011;10664;53.582;9.712;2023-03-01T11:41:00;13.57;;;8.70;;
21012;SDS011;10664;53.582;9.712;2023-03-01T11:43:43;11.67;;;8.23;;
21012;SDS011;10664;53.582;9.712;2023-03-01T11:51:05;11.20;;;7.67;;
21012;SDS011;10664;53.582;9.712;2023-03-01T11:53:40;12.13;;;8.30;;
21012;SDS011;10664;53.582;9.712;2023-03-01T11:56:34;15.27;;;9.83;;
21012;SDS011;10664;53.582;9.712;2023-03-01T11:59:03;12.20;;;8.23;;
21012;SDS011;10664;53.582;9.712;2023-03-01T12:04:36;12.30;;;8.30;;
21012;SDS011;10664;53.582;9.712;2023-03-01T12:07:24;10.77;;;8.13;;
21012;SDS011;10664;53.582;9.712;2023-03-01T12:12:28;11.20;;;8.13;;
21012;SDS011;10664;53.582;9.712;2023-03-01T12:17:34;12.00;;;8.30;;
21012;SDS011;10664;53.582;9.712;2023-03-01T12:20:20;11.70;;;9.00;;
21012;SDS011;10664;53.582;9.712;2023-03-01T12:22:56;12.33;;;8.57;;
21012;SDS011;10664;53.582;9.712;2023-03-01T12:25:45;12.83;;;9.20;;
21012;SDS011;10664;53.582;9.712;2023-03-01T12:31:00;14.60;;;9.60;;
21012;SDS011;10664;53.582;9.712;2023-03-01T12:41:28;15.33;;;10.27;;
21012;SDS011;10664;53.582;9.712;2023-03-01T12:44:03;15.90;;;10.70;;
21012;SDS011;10664;53.582;9.712;2023-03-01T12:49:13;15.20;;;10.77;;
21012;SDS011;10664;53.582;9.712;2023-03-01T12:51:40;19.07;;;12.13;;
21012;SDS011;10664;53.582;9.712;2023-03-01T12:54:15;19.33;;;12.07;;
21012;SDS011;10664;53.582;9.712;2023-03-01T12:56:41;19.37;;;12.90;;
21012;SDS011;10664;53.582;9.712;2023-03-01T12:59:17;20.87;;;14.53;;
21012;SDS011;10664;53.582;9.712;2023-03-01T13:01:51;23.53;;;15.17;;
21012;SDS011;10664;53.582;9.712;2023-03-01T13:04:28;23.27;;;15.03;;
21012;SDS011;10664;53.582;9.712;2023-03-01T13:07:07;25.10;;;14.90;;
21012;SDS011;10664;53.582;9.712;2023-03-01T13:12:02;25.07;;;15.73;;
21012;SDS011;10664;53.582;9.712;2023-03-01T13:16:57;26.73;;;16.83;;
21012;SDS011;10664;53.582;9.712;2023-03-01T13:19:24;26.27;;;16.23;;
21012;SDS011;10664;53.582;9.712;2023-03-01T13:21:51;25.83;;;16.33;;
21012;SDS011;10664;53.582;9.712;2023-03-01T13:24:38;26.93;;;16.70;;
21012;SDS011;10664;53.582;9.712;2023-03-01T13:32:18;23.33;;;14.90;;
21012;SDS011;10664;53.582;9.712;2023-03-01T13:34:45;25.10;;;15.37;;
21012;SDS011;10664;53.582;9.712;2023-03-01T13:37:19;27.37;;;16.17;;
21012;SDS011;10664;53.582;9.712;2023-03-01T13:39:45;25.07;;;15.20;;
21012;SDS011;10664;53.582;9.712;2023-03-01T13:45:15;25.13;;;15.00;;
21012;SDS011;10664;53.582;9.712;2023-03-01T13:47:42;25.10;;;14.90;;
21012;SDS011;10664;53.582;9.712;2023-03-01T13:50:15;23.37;;;15.33;;
21012;SDS011;10664;53.582;9.712;2023-03-01T13:52:50;23.80;;;14.57;;
21012;SDS011;10664;53.582;9.712;2023-03-01T13:55:23;20.63;;;13.83;;
21012;SDS011;10664;53.582;9.712;2023-03-01T13:57:50;24.43;;;14.30;;
21012;SDS011;10664;53.582;9.712;2023-03-01T14:00:36;21.87;;;13.67;;
21012;SDS011;10664;53.582;9.712;2023-03-01T14:03:23;23.70;;;15.23;;
21012;SDS011;10664;53.582;9.712;2023-03-01T14:06:02;21.97;;;14.27;;
21012;SDS011;10664;53.582;9.712;2023-03-01T14:08:31;21.13;;;12.87;;
21012;SDS011;10664;53.582;9.712;2023-03-01T14:18:30;19.30;;;13.40;;
21012;SDS011;10664;53.582;9.712;2023-03-01T14:20:59;18.00;;;12.27;;
21012;SDS011;10664;53.582;9.712;2023-03-01T14:23:26;16.80;;;11.37;;
21012;SDS011;10664;53.582;9.712;2023-03-01T14:25:56;19.53;;;12.10;;
21012;SDS011;10664;53.582;9.712;2023-03-01T14:28:26;16.33;;;12.00;;
21012;SDS011;10664;53.582;9.712;2023-03-01T14:30:56;15.67;;;11.53;;
21012;SDS011;10664;53.582;9.712;2023-03-01T14:33:24;15.20;;;10.63;;
21012;SDS011;10664;53.582;9.712;2023-03-01T14:35:55;15.80;;;11.17;;
21012;SDS011;10664;53.582;9.712;2023-03-01T14:38:22;14.53;;;10.20;;
21012;SDS011;10664;53.582;9.712;2023-03-01T14:40:48;15.07;;;11.03;;
21012;SDS011;10664;53.582;9.712;2023-03-01T14:43:17;16.20;;;11.50;;
21012;SDS011;10664;53.582;9.712;2023-03-01T14:45:47;14.23;;;10.70;;
21012;SDS011;10664;53.582;9.712;2023-03-01T14:48:13;14.03;;;10.23;;
21012;SDS011;10664;53.582;9.712;2023-03-01T14:50:41;15.33;;;11.00;;
21012;SDS011;10664;53.582;9.712;2023-03-01T14:53:14;14.03;;;10.70;;
21012;SDS011;10664;53.582;9.712;2023-03-01T14:55:41;14.67;;;10.57;;
21012;SDS011;10664;53.582;9.712;2023-03-01T14:58:13;12.90;;;9.83;;
21012;SDS011;10664;53.582;9.712;2023-03-01T15:00:42;13.93;;;10.97;;
21012;SDS011;10664;53.582;9.712;2023-03-01T15:03:12;14.23;;;10.37;;
21012;SDS011;10664;53.582;9.712;2023-03-01T15:05:40;15.10;;;11.10;;
21012;SDS011;10664;53.582;9.712;2023-03-01T15:08:07;14.87;;;10.97;;
21012;SDS011;10664;53.582;9.712;2023-03-01T15:10:37;13.40;;;10.63;;
21012;SDS011;10664;53.582;9.712;2023-03-01T15:13:19;15.23;;;10.40;;
21012;SDS011;10664;53.582;9.712;2023-03-01T15:15:47;14.23;;;11.27;;
21012;SDS011;10664;53.582;9.712;2023-03-01T15:18:18;15.97;;;10.37;;
21012;SDS011;10664;53.582;9.712;2023-03-01T15:20:45;13.03;;;10.70;;
21012;SDS011;10664;53.582;9.712;2023-03-01T15:23:25;13.33;;;10.47;;
21012;SDS011;10664;53.582;9.712;2023-03-01T15:25:52;14.97;;;10.90;;
21012;SDS011;10664;53.582;9.712;2023-03-01T15:28:23;16.10;;;11.87;;
21012;SDS011;10664;53.582;9.712;2023-03-01T15:30:52;22.10;;;16.00;;
21012;SDS011;10664;53.582;9.712;2023-03-01T15:33:27;21.53;;;15.13;;
21012;SDS011;10664;53.582;9.712;2023-03-01T15:35:55;19.47;;;13.73;;
21012;SDS011;10664;53.582;9.712;2023-03-01T15:38:25;18.20;;;12.93;;
21012;SDS011;10664;53.582;9.712;2023-03-01T15:40:51;17.73;;;12.17;;
21012;SDS011;10664;53.582;9.712;2023-03-01T15:43:37;17.90;;;12.03;;
21012;SDS011;10664;53.582;9.712;2023-03-01T15:46:04;16.33;;;11.87;;
21012;SDS011;10664;53.582;9.712;2023-03-01T15:48:30;15.00;;;11.27;;
21012;SDS011;10664;53.582;9.712;2023-03-01T15:50:56;15.70;;;11.17;;
21012;SDS011;10664;53.582;9.712;2023-03-01T15:53:23;19.30;;;11.30;;
21012;SDS011;10664;53.582;9.712;2023-03-01T15:55:49;14.37;;;10.80;;
21012;SDS011;10664;53.582;9.712;2023-03-01T15:58:17;15.33;;;11.10;;
21012;SDS011;10664;53.582;9.712;2023-03-01T16:00:43;16.23;;;11.67;;
21012;SDS011;10664;53.582;9.712;2023-03-01T16:03:12;16.87;;;11.37;;
21012;SDS011;10664;53.582;9.712;2023-03-01T16:05:38;16.57;;;11.57;;
21012;SDS011;10664;53.582;9.712;2023-03-01T16:08:05;17.27;;;11.93;;
21012;SDS011;10664;53.582;9.712;2023-03-01T16:10:31;16.23;;;11.23;;